Time;durP1;ratioP1;P1;durP2;ratioP2;P2;SDS_P1;SDS_P2;PMS_P1;PMS_P2;Temp;Humidity;BMP_temperature;BMP_pressure;BME280_temperature;BME280_humidity;BME280_pressure;Samples;Min_cycle;Max_cycle;Signal;HPM_P1;HPM_P2
2022/09/09 00:01:36;;;;;;;4.80;1.95;;;;;;;13.99;100.00;100691.75;4951013;29;20035;-68
2022/09/09 00:04:25;;;;;;;2.55;1.58;;;;;;;13.98;100.00;100687.41;4951023;28;20031;-68
2022/09/09 00:07:18;;;;;;;3.67;1.73;;;;;;;14.00;100.00;100689.88;4950650;28;20122;-68
2022/09/09 00:09:53;;;;;;;4.43;1.80;;;;;;;13.93;100.00;100676.53;4921942;29;20114;-68
2022/09/09 00:12:34;;;;;;;2.90;1.52;;;;;;;13.96;100.00;100686.84;4950452;29;20047;-69
2022/09/09 00:15:07;;;;;;;3.80;1.73;;;;;;;13.94;100.00;100686.25;4950651;28;20035;-69
2022/09/09 00:17:45;;;;;;;2.00;1.50;;;;;;;13.95;100.00;100679.81;4950904;29;20027;-68
2022/09/09 00:20:36;;;;;;;3.72;1.80;;;;;;;13.95;100.00;100679.81;4950631;29;20027;-68
2022/09/09 00:23:11;;;;;;;2.80;1.50;;;;;;;13.94;100.00;100675.50;4950918;29;20083;-68
2022/09/09 00:25:49;;;;;;;2.42;1.75;;;;;;;13.90;100.00;100674.31;4950774;28;20467;-68
2022/09/09 00:28:22;;;;;;;8.77;3.10;;;;;;;13.86;100.00;100669.59;4950960;29;20038;-68
2022/09/09 00:30:48;;;;;;;2.97;1.48;;;;;;;13.84;100.00;100667.16;4950746;29;20019;-68
2022/09/09 00:33:16;;;;;;;3.65;1.65;;;;;;;13.82;100.00;100663.88;4950709;29;20533;-68
2022/09/09 00:35:48;;;;;;;4.85;1.70;;;;;;;13.79;100.00;100673.19;4950596;29;20517;-68
2022/09/09 00:38:15;;;;;;;1.92;1.50;;;;;;;13.85;100.00;100676.03;4950694;29;20098;-68
2022/09/09 00:40:52;;;;;;;2.92;1.83;;;;;;;13.86;100.00;100673.13;4950693;28;20459;-68
2022/09/09 00:43:32;;;;;;;2.10;1.70;;;;;;;13.86;100.00;100675.81;4950771;29;20035;-68
2022/09/09 00:46:19;;;;;;;2.67;1.60;;;;;;;13.86;100.00;100670.44;4950816;29;20042;-68
2022/09/09 00:48:51;;;;;;;3.60;1.80;;;;;;;13.88;100.00;100667.53;4950418;28;20027;-68
2022/09/09 00:51:40;;;;;;;4.95;2.03;;;;;;;13.85;100.00;100657.25;4950530;29;20114;-68
2022/09/09 00:54:32;;;;;;;3.47;2.38;;;;;;;13.81;100.00;100660.38;4950089;29;20040;-68
2022/09/09 00:57:28;;;;;;;2.33;2.08;;;;;;;13.80;100.00;100650.69;4949822;29;20039;-68
2022/09/09 01:00:19;;;;;;;3.47;1.60;;;;;;;13.78;100.00;100650.13;4950577;29;20039;-68
2022/09/09 01:03:20;;;;;;;5.47;1.85;;;;;;;13.77;100.00;100656.50;4949808;29;20127;-68
2022/09/09 01:05:50;;;;;;;2.97;1.88;;;;;;;13.75;100.00;100652.41;4950609;28;20106;-68
2022/09/09 01:08:35;;;;;;;2.60;1.60;;;;;;;13.74;100.00;100648.09;4950387;29;20058;-68
2022/09/09 01:11:02;;;;;;;3.75;1.60;;;;;;;13.71;100.00;100649.38;4950201;29;20052;-68
2022/09/09 01:13:34;;;;;;;8.05;2.97;;;;;;;13.69;100.00;100648.75;4950056;28;20869;-68
2022/09/09 01:16:03;;;;;;;3.17;1.45;;;;;;;13.67;100.00;100650.84;4949900;28;20562;-68
2022/09/09 01:18:36;;;;;;;3.40;2.08;;;;;;;13.67;100.00;100655.38;4950292;28;20514;-68
2022/09/09 01:21:19;;;;;;;5.07;1.90;;;;;;;13.59;100.00;100646.59;4953540;29;20032;-68
2022/09/09 01:24:20;;;;;;;2.72;1.27;;;;;;;13.66;100.00;100651.88;4953550;29;20035;-68
2022/09/09 01:26:47;;;;;;;5.30;1.87;;;;;;;13.64;100.00;100651.28;4950048;29;20394;-68
2022/09/09 01:29:16;;;;;;;3.28;1.70;;;;;;;13.63;100.00;100652.34;4953670;29;20035;-68
2022/09/09 01:31:52;;;;;;;3.60;2.13;;;;;;;13.62;100.00;100647.19;4953383;28;20934;-68
2022/09/09 01:34:18;;;;;;;5.35;2.40;;;;;;;13.62;100.00;100642.63;4953463;28;20078;-68
2022/09/09 01:37:02;;;;;;;9.50;2.08;;;;;;;13.64;100.00;100647.78;4953648;29;20015;-68
2022/09/09 01:39:27;;;;;;;3.72;1.60;;;;;;;13.65;100.00;100649.41;4953432;29;20035;-68
2022/09/09 01:41:55;;;;;;;3.30;1.95;;;;;;;13.66;100.00;100651.06;4953418;29;20039;-68
2022/09/09 01:44:21;;;;;;;4.10;2.13;;;;;;;13.61;100.00;100638.34;4953316;29;20035;-68
2022/09/09 01:46:47;;;;;;;3.53;2.10;;;;;;;13.64;100.00;100645.09;4953036;28;20027;-68
2022/09/09 01:49:12;;;;;;;3.65;1.90;;;;;;;13.67;100.00;100645.47;4953303;29;20019;-68
2022/09/09 01:51:41;;;;;;;4.95;2.10;;;;;;;13.68;100.00;100643.63;4953278;28;20035;-68
2022/09/09 01:54:07;;;;;;;3.80;1.80;;;;;;;13.69;100.00;100643.41;4953279;29;20042;-68
2022/09/09 01:56:51;;;;;;;1.83;1.63;;;;;;;13.72;100.00;100642.13;4953437;29;20490;-68
2022/09/09 01:59:37;;;;;;;2.55;1.70;;;;;;;13.71;100.00;100652.03;4953037;28;20031;-68
2022/09/09 02:02:02;;;;;;;2.72;1.80;;;;;;;13.71;100.00;100646.69;4953154;29;20027;-68
2022/09/09 02:04:41;;;;;;;3.87;1.67;;;;;;;13.67;100.00;100640.13;4953134;29;20031;-68
2022/09/09 02:07:42;;;;;;;6.22;2.70;;;;;;;13.67;100.00;100634.75;4953065;28;20313;-68
2022/09/09 02:10:21;;;;;;;8.50;3.77;;;;;;;13.68;100.00;100630.25;4934056;29;20448;-68
2022/09/09 02:13:04;;;;;;;9.77;2.17;;;;;;;13.68;100.00;100624.88;4952656;29;20035;-68
2022/09/09 02:15:40;;;;;;;4.38;2.28;;;;;;;13.65;100.00;100617.25;4952475;29;20052;-68
2022/09/09 02:18:08;;;;;;;6.40;2.00;;;;;;;13.65;100.00;100617.25;4952414;28;20046;-68
2022/09/09 02:20:37;;;;;;;4.65;1.75;;;;;;;13.62;100.00;100607.00;4952782;29;20375;-68
2022/09/09 02:23:05;;;;;;;5.13;2.05;;;;;;;13.64;100.00;100610.28;4952586;28;20035;-68
2022/09/09 02:25:30;;;;;;;2.58;1.48;;;;;;;13.64;100.00;100619.13;4952227;29;20117;-68
2022/09/09 02:27:58;;;;;;;2.90;1.80;;;;;;;13.63;100.00;100614.00;4952281;29;20715;-68
2022/09/09 02:30:24;;;;;;;2.47;2.10;;;;;;;13.62;100.00;100609.66;4952407;28;20023;-68
2022/09/09 02:32:52;;;;;;;3.30;1.65;;;;;;;13.61;100.00;100614.22;4952540;28;20036;-68
2022/09/09 02:35:24;;;;;;;3.40;2.03;;;;;;;13.60;100.00;100615.28;4952476;28;20491;-68
2022/09/09 02:37:52;;;;;;;5.07;2.53;;;;;;;13.59;100.00;100610.94;4952383;29;20027;-68
2022/09/09 02:40:18;;;;;;;5.75;2.63;;;;;;;13.61;100.00;100618.75;4952422;29;20023;-68
2022/09/09 02:42:47;;;;;;;5.53;1.95;;;;;;;13.61;100.00;100621.44;4952270;28;20056;-68
2022/09/09 02:45:17;;;;;;;4.47;2.45;;;;;;;13.58;100.00;100623.53;4952183;28;20029;-68
2022/09/09 02:47:43;;;;;;;7.05;1.80;;;;;;;13.58;100.00;100618.16;4952089;29;20057;-68
2022/09/09 02:50:20;;;;;;;2.90;1.70;;;;;;;13.58;100.00;100611.97;4952225;29;20478;-68
2022/09/09 02:53:10;;;;;;;5.50;1.98;;;;;;;13.59;100.00;100616.28;4952253;28;20031;-68
2022/09/09 02:55:55;;;;;;;3.38;2.00;;;;;;;13.58;100.00;100617.34;4952035;29;20530;-68
2022/09/09 02:58:21;;;;;;;5.45;2.92;;;;;;;13.57;100.00;100624.56;4952077;29;20035;-68
2022/09/09 03:00:48;;;;;;;3.90;2.10;;;;;;;13.57;100.00;100629.94;4951942;29;20082;-68
2022/09/09 03:03:16;;;;;;;2.55;1.70;;;;;;;13.56;100.00;100622.91;4952066;29;20027;-68
2022/09/09 03:05:42;;;;;;;3.72;2.30;;;;;;;13.56;100.00;100622.91;4951895;29;20042;-68
2022/09/09 03:08:07;;;;;;;6.68;2.50;;;;;;;13.56;100.00;100630.13;4951570;28;20043;-68
2022/09/09 03:10:34;;;;;;;5.90;2.58;;;;;;;13.53;100.00;100618.00;4951621;29;20406;-69
2022/09/09 03:12:59;;;;;;;4.65;2.38;;;;;;;13.56;100.00;100630.94;4951762;29;20041;-69
2022/09/09 03:15:28;;;;;;;4.20;2.17;;;;;;;13.56;100.00;100627.47;4951677;29;20031;-69
2022/09/09 03:17:55;;;;;;;3.10;2.47;;;;;;;13.57;100.00;100624.56;4951542;29;20050;-69
2022/09/09 03:20:20;;;;;;;2.60;2.17;;;;;;;13.58;100.00;100622.69;4951300;28;20027;-69
2022/09/09 03:22:45;;;;;;;5.00;2.33;;;;;;;13.59;100.00;100621.66;4951679;29;20019;-69
2022/09/09 03:25:10;;;;;;;4.63;2.28;;;;;;;13.60;100.00;100623.31;4951576;29;20036;-68
2022/09/09 03:27:36;;;;;;;5.35;2.67;;;;;;;13.61;100.00;100621.44;4951503;29;20058;-68
2022/09/09 03:30:03;;;;;;;2.83;2.13;;;;;;;13.62;100.00;100628.44;4951486;29;20110;-68
2022/09/09 03:32:29;;;;;;;4.50;2.20;;;;;;;13.61;100.00;100624.13;4951535;29;20034;-68
2022/09/09 03:34:54;;;;;;;6.68;3.03;;;;;;;13.61;100.00;100626.81;4951449;29;20035;-68
2022/09/09 03:37:20;;;;;;;9.80;2.40;;;;;;;13.59;100.00;100616.28;4951470;28;20034;-68
2022/09/09 03:39:45;;;;;;;4.65;2.13;;;;;;;13.61;100.00;100630.28;4951356;29;20054;-68
2022/09/09 03:42:14;;;;;;;7.15;2.35;;;;;;;13.63;100.00;100635.44;4950868;28;20023;-69
2022/09/09 03:44:41;;;;;;;4.03;2.28;;;;;;;13.64;100.00;100631.72;4951159;29;20039;-68
2022/09/09 03:47:07;;;;;;;5.20;2.20;;;;;;;13.67;100.00;100632.06;4951059;29;20043;-68
2022/09/09 03:49:32;;;;;;;9.70;3.20;;;;;;;13.70;100.00;100633.50;4950963;28;20514;-68
2022/09/09 03:51:58;;;;;;;5.63;2.00;;;;;;;13.70;100.00;100634.34;4951284;29;20039;-68
2022/09/09 03:54:25;;;;;;;3.53;1.92;;;;;;;13.65;100.00;100609.22;4932755;29;20035;-68
2022/09/09 03:56:50;;;;;;;3.95;2.17;;;;;;;13.71;100.00;100625.25;4951103;28;20027;-68
2022/09/09 03:59:16;;;;;;;5.50;2.63;;;;;;;13.71;100.00;100624.44;4950687;29;20054;-68
2022/09/09 04:01:41;;;;;;;6.40;2.53;;;;;;;13.75;100.00;100625.59;4933569;29;20035;-68
2022/09/09 04:04:08;;;;;;;3.13;2.20;;;;;;;13.73;100.00;100623.16;4950891;28;20126;-68
2022/09/09 04:06:34;;;;;;;4.72;2.20;;;;;;;13.74;100.00;100611.38;4951052;29;20483;-68
2022/09/09 04:09:02;;;;;;;2.80;2.13;;;;;;;13.80;100.00;100617.72;4950805;29;20050;-68
2022/09/09 04:11:27;;;;;;;5.43;1.90;;;;;;;13.83;100.00;100619.94;4950601;28;20102;-68
2022/09/09 04:13:53;;;;;;;7.78;2.45;;;;;;;13.84;100.00;100624.28;4950861;28;20118;-68
2022/09/09 04:16:18;;;;;;;9.50;2.63;;;;;;;13.84;100.00;100613.56;4950933;28;20041;-68
2022/09/09 04:18:44;;;;;;;5.25;2.38;;;;;;;13.79;100.00;100610.72;4950512;29;20126;-68
2022/09/09 04:21:12;;;;;;;4.70;2.03;;;;;;;13.84;100.00;100610.88;4950409;28;20035;-69
2022/09/09 04:23:37;;;;;;;6.20;2.78;;;;;;;13.85;100.00;100611.69;4950784;28;20023;-69
2022/09/09 04:26:03;;;;;;;7.30;3.25;;;;;;;13.85;100.00;100617.03;4933739;29;20127;-69
2022/09/09 04:28:31;;;;;;;7.50;2.60;;;;;;;13.85;100.00;100609.81;4950835;29;20505;-69
2022/09/09 04:30:56;;;;;;;3.45;1.63;;;;;;;13.83;100.00;100593.13;4932251;29;20036;-69
2022/09/09 04:33:26;;;;;;;7.40;2.47;;;;;;;13.85;100.00;100593.72;4932333;29;20045;-69
2022/09/09 04:35:54;;;;;;;5.93;2.25;;;;;;;13.92;100.00;100610.56;4950548;29;20027;-68
2022/09/09 04:38:22;;;;;;;5.88;2.58;;;;;;;13.94;100.00;100602.31;4950728;28;20051;-69
2022/09/09 04:40:49;;;;;;;4.90;2.30;;;;;;;13.95;100.00;100609.31;4933285;29;20587;-69
2022/09/09 04:43:14;;;;;;;4.10;2.40;;;;;;;13.84;100.00;100581.38;4932405;29;20135;-68
2022/09/09 04:45:41;;;;;;;4.93;2.30;;;;;;;13.94;100.00;100594.28;4932286;29;20140;-68
2022/09/09 04:48:09;;;;;;;5.55;2.63;;;;;;;13.90;100.00;100596.56;4950578;28;20035;-68
2022/09/09 04:50:34;;;;;;;5.13;2.55;;;;;;;13.96;100.00;100592.16;4950429;29;20031;-68
2022/09/09 04:53:01;;;;;;;4.72;2.40;;;;;;;13.97;100.00;100585.78;4950674;28;20046;-68
2022/09/09 04:55:26;;;;;;;8.10;2.35;;;;;;;14.00;100.00;100588.81;4953117;29;20039;-68
2022/09/09 04:57:52;;;;;;;5.65;1.98;;;;;;;14.01;100.00;100593.13;4954110;29;20039;-68
2022/09/09 05:00:18;;;;;;;7.00;2.60;;;;;;;14.01;100.00;100593.13;4953403;28;20035;-69
2022/09/09 05:02:44;;;;;;;5.72;2.90;;;;;;;14.01;100.00;100590.44;4953978;29;20078;-69
2022/09/09 05:05:11;;;;;;;7.63;2.58;;;;;;;14.01;100.00;100590.44;4954049;29;20070;-69
2022/09/09 05:07:37;;;;;;;4.07;2.20;;;;;;;14.01;100.00;100606.53;4953905;29;20416;-69
2022/09/09 05:10:04;;;;;;;10.20;3.00;;;;;;;13.96;100.00;100586.78;4953522;29;20078;-69
2022/09/09 05:12:31;;;;;;;7.80;3.17;;;;;;;13.98;100.00;100592.75;4953922;29;20047;-69
2022/09/09 05:14:56;;;;;;;7.00;2.30;;;;;;;13.98;100.00;100593.56;4935377;29;20063;-69
2022/09/09 05:17:22;;;;;;;4.97;3.10;;;;;;;13.98;100.00;100593.56;4935374;29;20032;-68
2022/09/09 05:19:47;;;;;;;5.97;2.47;;;;;;;13.97;100.00;100583.09;4935516;29;20027;-68
2022/09/09 05:22:13;;;;;;;5.20;2.88;;;;;;;14.02;100.00;100592.09;4935084;29;20023;-68
2022/09/09 05:24:38;;;;;;;5.20;2.70;;;;;;;14.02;100.00;100586.72;4935054;29;20036;-68
2022/09/09 05:27:05;;;;;;;7.78;2.97;;;;;;;14.06;100.00;100586.28;4953419;29;20509;-68
2022/09/09 05:29:33;;;;;;;6.65;2.75;;;;;;;14.07;100.00;100585.22;4953503;28;20109;-68
2022/09/09 05:31:58;;;;;;;10.98;2.90;;;;;;;14.08;100.00;100582.31;4953112;29;20023;-68
2022/09/09 05:34:24;;;;;;;7.47;2.67;;;;;;;14.07;100.00;100583.38;4953122;29;20038;-68
2022/09/09 05:36:49;;;;;;;5.82;2.95;;;;;;;14.08;100.00;100579.63;4953536;29;20386;-68
2022/09/09 05:39:15;;;;;;;6.72;2.70;;;;;;;14.09;100.00;100588.50;4953212;28;20038;-69
2022/09/09 05:41:40;;;;;;;11.73;2.90;;;;;;;14.06;100.00;100583.59;4953230;28;20031;-69
2022/09/09 05:44:06;;;;;;;4.90;2.40;;;;;;;14.09;100.00;100583.13;4953072;29;20043;-69
2022/09/09 05:46:31;;;;;;;4.68;2.67;;;;;;;14.09;100.00;100580.44;4953410;29;20034;-67
2022/09/09 05:48:58;;;;;;;7.13;2.92;;;;;;;14.07;100.00;100580.69;4953377;29;20042;-67
2022/09/09 05:51:27;;;;;;;7.65;3.17;;;;;;;14.07;100.00;100585.22;4952927;28;20062;-68
2022/09/09 05:53:54;;;;;;;9.60;2.67;;;;;;;14.02;100.00;100581.38;4953194;29;20957;-67
2022/09/09 05:56:24;;;;;;;5.15;1.80;;;;;;;14.08;100.00;100592.22;4953140;28;20439;-67
2022/09/09 05:58:51;;;;;;;10.50;2.50;;;;;;;14.09;100.00;100599.22;4952784;29;20027;-67
2022/09/09 06:01:28;;;;;;;8.05;3.10;;;;;;;14.12;100.00;100599.59;4952710;28;20065;-67
2022/09/09 06:03:54;;;;;;;5.60;2.38;;;;;;;14.16;100.00;100600.78;4953043;29;20459;-67
2022/09/09 06:06:22;;;;;;;7.75;2.67;;;;;;;14.22;100.00;100604.41;4952438;28;20106;-67
2022/09/09 06:08:50;;;;;;;6.22;2.08;;;;;;;14.25;100.00;100610.16;4952552;28;20078;-68
2022/09/09 06:11:17;;;;;;;13.90;2.70;;;;;;;14.33;100.00;100606.34;4952432;28;20058;-69
2022/09/09 06:13:42;;;;;;;4.60;2.45;;;;;;;14.36;100.00;100619.28;4952647;28;20086;-69
2022/09/09 06:16:11;;;;;;;4.95;2.88;;;;;;;14.38;100.00;100611.00;4952770;29;20027;-68
2022/09/09 06:18:36;;;;;;;7.72;2.95;;;;;;;14.32;100.00;100596.63;4952723;28;20031;-68
2022/09/09 06:21:06;;;;;;;4.60;2.50;;;;;;;14.40;100.00;100604.38;4952775;29;20099;-68
2022/09/09 06:23:32;;;;;;;9.27;3.20;;;;;;;14.43;100.00;100605.78;4952352;29;20035;-68
2022/09/09 06:26:05;;;;;;;6.55;3.08;;;;;;;14.43;100.00;100595.84;4951918;29;20723;-68
2022/09/09 06:28:35;;;;;;;9.82;3.90;;;;;;;14.48;100.00;100595.19;4952501;29;20059;-69
2022/09/09 06:31:02;;;;;;;9.35;2.75;;;;;;;14.49;100.00;100599.50;4952503;29;20430;-69
2022/09/09 06:33:32;;;;;;;7.78;2.70;;;;;;;14.57;100.00;100598.41;4952433;29;20031;-68
2022/09/09 06:35:57;;;;;;;7.75;2.85;;;;;;;14.63;100.00;100597.47;4952552;29;20086;-68
2022/09/09 06:38:23;;;;;;;6.82;2.95;;;;;;;14.68;100.00;100611.03;4952097;29;20086;-68
2022/09/09 06:40:56;;;;;;;6.07;2.65;;;;;;;14.76;100.00;100596.47;4940922;28;20027;-68
2022/09/09 06:43:22;;;;;;;11.68;2.78;;;;;;;14.84;100.00;100604.19;4937641;28;20117;-67
2022/09/09 06:45:59;;;;;;;11.80;4.35;;;;;;;14.91;100.00;100602.22;4938284;28;20031;-68
2022/09/09 06:48:26;;;;;;;7.38;2.55;;;;;;;14.90;100.00;100603.25;4918164;29;20546;-69
2022/09/09 06:51:11;;;;;;;9.43;3.47;;;;;;;14.91;100.00;100596.84;4933457;29;20032;-70
2022/09/09 06:53:37;;;;;;;7.93;2.45;;;;;;;15.02;100.00;100603.28;4951961;28;20027;-69
2022/09/09 06:56:31;;;;;;;9.50;3.40;;;;;;;15.12;100.00;100601.63;4951833;29;20039;-69
2022/09/09 06:58:58;;;;;;;7.90;2.53;;;;;;;15.20;100.00;100596.97;4944178;29;20154;-69
2022/09/09 07:01:27;;;;;;;12.90;2.92;;;;;;;15.27;100.00;100595.81;4951717;29;20591;-70
2022/09/09 07:03:55;;;;;;;6.35;2.72;;;;;;;15.31;100.00;100590.78;4951521;28;20086;-69
2022/09/09 07:06:26;;;;;;;10.23;2.65;;;;;;;15.41;100.00;100593.69;4950900;29;20474;-69
2022/09/09 07:08:54;;;;;;;5.60;2.70;;;;;;;15.49;100.00;100589.84;4951579;28;20043;-69
2022/09/09 07:11:21;;;;;;;12.23;3.13;;;;;;;15.53;100.00;100597.16;4950825;29;20045;-69
2022/09/09 07:13:48;;;;;;;6.22;3.03;;;;;;;15.59;100.00;100594.59;4951064;29;20082;-69
2022/09/09 07:16:17;;;;;;;8.55;2.92;;;;;;;15.61;100.00;100597.88;4951299;28;20125;-69
2022/09/09 07:18:43;;;;;;;6.30;2.80;;;;;;;15.64;100.00;100595.53;4951121;29;20031;-69
2022/09/09 07:21:11;;;;;;;4.93;2.45;;;;;;;15.66;100.00;100604.16;4951752;29;20123;-68
2022/09/09 07:23:38;;;;;;;8.32;3.35;;;;;;;15.71;100.00;100590.88;4951697;29;20082;-69
2022/09/09 07:26:26;;;;;;;9.27;3.03;;;;;;;15.81;100.00;100594.84;4950863;29;20031;-69
2022/09/09 07:28:53;;;;;;;6.18;2.78;;;;;;;15.88;100.00;100600.91;4951050;29;20063;-69
2022/09/09 07:31:23;;;;;;;8.85;2.90;;;;;;;15.98;100.00;100596.53;4951530;29;20027;-68
2022/09/09 07:33:49;;;;;;;7.30;2.20;;;;;;;16.03;100.00;100585.03;4951513;28;20869;-69
2022/09/09 07:36:17;;;;;;;8.30;2.50;;;;;;;16.23;99.57;100592.69;4951266;29;20029;-68
2022/09/09 07:38:48;;;;;;;5.28;2.25;;;;;;;16.26;99.12;100591.41;4951096;28;20035;-69
2022/09/09 07:41:34;;;;;;;9.25;2.15;;;;;;;16.37;99.83;100599.44;4951369;28;20427;-68
2022/09/09 07:44:04;;;;;;;11.23;3.03;;;;;;;16.54;97.71;100602.16;4950640;29;20034;-69
2022/09/09 07:46:30;;;;;;;6.75;3.65;;;;;;;16.60;94.33;100595.78;4951049;28;20109;-69
2022/09/09 07:48:56;;;;;;;9.68;3.20;;;;;;;16.64;94.92;100588.06;4951166;29;20066;-68
2022/09/09 07:51:33;;;;;;;11.57;3.30;;;;;;;16.68;95.70;100594.56;4951101;28;20047;-68
2022/09/09 07:54:01;;;;;;;6.50;2.35;;;;;;;16.66;95.59;100602.06;4951207;29;20027;-68
2022/09/09 07:56:28;;;;;;;7.97;3.50;;;;;;;16.57;94.30;100604.34;4951086;29;20370;-68
2022/09/09 07:58:55;;;;;;;7.57;2.58;;;;;;;16.48;93.70;100608.53;4933767;29;20031;-68
2022/09/09 08:01:27;;;;;;;6.95;1.95;;;;;;;16.40;95.04;100606.19;4950866;29;20041;-68
2022/09/09 08:03:54;;;;;;;;;;;;;;;16.42;95.87;100606.78;4951295;28;20586;-68
2022/09/09 08:06:19;;;;;;;9.65;2.90;;;;;;;16.36;94.87;100605.06;4950956;29;19969;-69
2022/09/09 08:08:50;;;;;;;8.60;2.63;;;;;;;16.44;93.13;100610.84;4933683;29;20050;-68
2022/09/09 08:11:16;;;;;;;7.28;1.98;;;;;;;16.43;93.33;100617.31;4950652;28;20183;-68
2022/09/09 08:13:43;;;;;;;7.47;2.50;;;;;;;16.47;94.16;100612.25;4950752;29;20117;-68
2022/09/09 08:16:15;;;;;;;6.07;2.08;;;;;;;16.56;92.65;100613.50;4950750;28;20106;-68
2022/09/09 08:18:41;;;;;;;7.65;2.42;;;;;;;16.64;92.63;100610.41;4933615;29;20453;-68
2022/09/09 08:21:13;;;;;;;4.25;2.10;;;;;;;16.70;92.56;100616.69;4950932;29;20059;-68
2022/09/09 08:23:43;;;;;;;10.88;2.30;;;;;;;16.72;91.91;100619.16;4950716;29;20050;-68
2022/09/09 08:26:17;;;;;;;8.57;2.55;;;;;;;16.80;91.75;100610.72;4950665;28;20162;-68
2022/09/09 08:28:43;;;;;;;8.63;3.28;;;;;;;16.89;90.61;100611.13;4952145;28;20102;-68
2022/09/09 08:31:13;;;;;;;8.52;2.88;;;;;;;16.92;90.60;100616.81;4954642;29;21012;-68
2022/09/09 08:33:39;;;;;;;3.25;2.03;;;;;;;16.89;90.84;100617.31;4949302;28;20067;-68
2022/09/09 08:36:06;;;;;;;6.07;2.20;;;;;;;16.86;91.48;100617.81;4940049;28;20111;-69
2022/09/09 08:38:33;;;;;;;9.02;2.88;;;;;;;16.82;91.22;100617.50;4939825;28;20036;-66
2022/09/09 08:41:13;;;;;;;9.20;2.25;;;;;;;16.79;91.24;100622.53;4922002;28;20480;-66
2022/09/09 08:43:41;;;;;;;4.50;2.53;;;;;;;16.80;90.51;100624.19;4937933;28;20030;-65
2022/09/09 08:46:25;;;;;;;11.07;3.47;;;;;;;16.83;90.94;100621.81;4936111;29;20032;-65
2022/09/09 08:48:59;;;;;;;6.00;2.25;;;;;;;16.85;89.45;100630.47;4954370;29;20053;-65
2022/09/09 08:51:27;;;;;;;4.75;2.40;;;;;;;16.82;90.05;100630.13;4954336;29;20028;-64
2022/09/09 08:53:54;;;;;;;12.35;3.10;;;;;;;16.83;90.63;100635.28;4954251;29;20027;-65
2022/09/09 08:56:24;;;;;;;7.65;2.50;;;;;;;16.81;90.35;100634.69;4954372;28;20122;-65
2022/09/09 08:58:52;;;;;;;5.03;2.28;;;;;;;16.89;90.49;100638.88;4954195;29;20031;-65
2022/09/09 09:01:55;;;;;;;8.05;1.90;;;;;;;16.96;89.73;100634.16;4953801;28;20023;-65
2022/09/09 09:04:27;;;;;;;9.25;2.25;;;;;;;16.98;89.72;100642.81;4935744;28;20070;-65
2022/09/09 09:07:08;;;;;;;3.63;1.63;;;;;;;16.96;89.25;100636.84;4935774;29;20090;-65
2022/09/09 09:09:51;;;;;;;8.73;2.90;;;;;;;16.91;90.01;100644.84;4918371;29;20376;-65
2022/09/09 09:12:23;;;;;;;5.32;1.92;;;;;;;16.84;89.65;100646.84;4935662;29;20035;-65
2022/09/09 09:14:48;;;;;;;;;;;;;;;16.84;89.86;100647.66;4954567;28;20035;-65
2022/09/09 09:17:16;;;;;;;5.43;2.03;;;;;;;16.77;89.23;100647.03;4953945;29;20021;-65
2022/09/09 09:19:43;;;;;;;6.57;2.35;;;;;;;16.72;89.68;100648.78;4953680;28;20038;-65
2022/09/09 09:22:17;;;;;;;6.32;2.28;;;;;;;16.66;89.03;100650.53;4953757;29;20019;-66
2022/09/09 09:25:01;;;;;;;7.53;2.30;;;;;;;16.63;89.99;100656.41;4942640;28;20419;-65
2022/09/09 09:27:36;;;;;;;6.07;2.42;;;;;;;16.60;90.19;100651.53;4939379;28;20020;-67
2022/09/09 09:30:22;;;;;;;7.80;2.42;;;;;;;16.63;90.87;100651.03;4938711;28;20052;-67
2022/09/09 09:33:02;;;;;;;14.50;2.63;;;;;;;16.65;90.41;100651.63;4939512;28;20055;-65
2022/09/09 09:35:28;;;;;;;9.45;2.90;;;;;;;16.67;89.76;100640.63;4938263;28;20032;-66
2022/09/09 09:37:54;;;;;;;8.15;2.40;;;;;;;16.73;89.14;100639.63;4939251;28;20047;-64
2022/09/09 09:40:21;;;;;;;5.38;2.53;;;;;;;16.80;88.85;100645.72;4935269;28;20126;-64
2022/09/09 09:42:59;;;;;;;10.48;2.92;;;;;;;16.85;88.67;100640.44;4935009;29;20065;-64
2022/09/09 09:45:55;;;;;;;6.82;2.45;;;;;;;17.00;88.90;100647.94;4935076;29;20028;-64
2022/09/09 09:48:20;;;;;;;4.28;2.20;;;;;;;16.95;88.36;100651.38;4918992;29;20056;-64
2022/09/09 09:50:58;;;;;;;2.28;1.85;;;;;;;17.01;88.81;100647.69;4935062;29;20380;-64
2022/09/09 09:53:29;;;;;;;8.07;2.13;;;;;;;17.06;87.39;100645.09;4953218;29;20031;-64
2022/09/09 09:56:00;;;;;;;5.28;1.83;;;;;;;17.25;88.15;100642.97;4952726;29;20467;-64
2022/09/09 09:58:46;;;;;;;10.23;2.67;;;;;;;17.52;87.40;100642.28;4953067;28;20020;-64
2022/09/09 10:01:26;;;;;;;7.93;2.63;;;;;;;17.64;85.91;100637.59;4939512;29;20046;-64
2022/09/09 10:04:13;;;;;;;8.68;1.80;;;;;;;17.74;85.12;100634.22;4934700;29;20024;-64
2022/09/09 10:06:39;;;;;;;8.38;2.28;;;;;;;17.92;84.48;100630.41;4952940;28;20031;-64
2022/09/09 10:09:32;;;;;;;4.90;1.90;;;;;;;18.12;85.67;100632.56;4952246;28;20031;-64
2022/09/09 10:12:24;;;;;;;11.18;2.85;;;;;;;18.05;84.45;100631.94;4931449;29;20048;-64
2022/09/09 10:15:26;;;;;;;4.15;1.70;;;;;;;17.88;84.10;100640.09;4952890;29;20063;-64
2022/09/09 10:18:21;;;;;;;5.18;1.80;;;;;;;17.66;84.72;100627.38;4952893;29;20027;-64
2022/09/09 10:21:05;;;;;;;12.82;2.58;;;;;;;17.54;84.55;100648.22;4952881;29;20058;-64
2022/09/09 10:24:01;;;;;;;9.00;2.42;;;;;;;17.46;87.01;100648.66;4952664;29;20534;-64
2022/09/09 10:27:04;;;;;;;5.60;2.30;;;;;;;17.33;86.83;100646.31;4934271;29;20028;-64
2022/09/09 10:29:56;;;;;;;5.88;2.35;;;;;;;17.22;88.17;100646.16;4887572;29;20050;-64
2022/09/09 10:32:37;;;;;;;9.48;2.00;;;;;;;17.18;90.65;100649.56;4922613;29;20050;-64
2022/09/09 10:35:14;;;;;;;9.80;2.63;;;;;;;17.12;89.81;100654.06;4952370;29;20360;-64
2022/09/09 10:38:11;;;;;;;4.93;2.15;;;;;;;17.03;90.07;100661.75;4952403;28;20478;-64
2022/09/09 10:40:36;;;;;;;4.85;2.63;;;;;;;17.00;92.00;100658.72;4934175;29;20068;-64
2022/09/09 10:43:31;;;;;;;7.83;2.40;;;;;;;17.01;93.23;100668.44;4934182;29;20063;-64
2022/09/09 10:46:12;;;;;;;8.13;2.00;;;;;;;16.83;93.82;100659.50;4952256;28;20370;-64
2022/09/09 10:48:56;;;;;;;5.18;1.73;;;;;;;16.77;94.23;100659.66;4935102;28;20047;-64
2022/09/09 10:51:33;;;;;;;8.57;1.95;;;;;;;16.67;96.18;100662.97;4952017;28;20030;-64
2022/09/09 10:54:28;;;;;;;7.60;2.17;;;;;;;16.62;96.71;100673.66;4952119;29;20063;-64
2022/09/09 10:57:00;;;;;;;4.70;2.33;;;;;;;16.49;97.38;100663.97;4932196;29;20043;-64
2022/09/09 10:59:35;;;;;;;6.25;3.03;;;;;;;16.42;98.88;100663.31;4933577;29;20388;-64
2022/09/09 11:02:12;;;;;;;5.78;2.15;;;;;;;16.40;99.60;100660.03;4952034;29;20435;-64
2022/09/09 11:05:12;;;;;;;11.43;2.60;;;;;;;16.39;99.38;100653.84;4949324;28;20063;-64
2022/09/09 11:07:59;;;;;;;8.95;2.63;;;;;;;16.37;99.74;100657.81;4933534;28;20028;-66
2022/09/09 11:10:34;;;;;;;5.95;1.95;;;;;;;16.40;100.00;100657.34;4951613;29;20507;-66
2022/09/09 11:13:03;;;;;;;6.38;2.92;;;;;;;16.45;100.00;100646.66;4951702;29;20050;-66
2022/09/09 11:15:51;;;;;;;5.50;2.33;;;;;;;16.59;100.00;100649.91;4951676;29;20162;-67
2022/09/09 11:18:22;;;;;;;4.55;2.63;;;;;;;16.72;98.93;100652.28;4951628;29;20042;-66
2022/09/09 11:20:49;;;;;;;;;;;;;;;16.83;98.32;100654.13;4952095;28;20023;-66
2022/09/09 11:23:23;;;;;;;7.13;2.67;;;;;;;16.83;99.18;100650.63;4951377;29;19915;-66
2022/09/09 11:25:57;;;;;;;6.90;3.47;;;;;;;16.81;98.80;100637.38;4951019;28;20031;-69
2022/09/09 11:28:41;;;;;;;7.72;3.05;;;;;;;16.83;100.00;100654.13;4951629;28;20027;-69
2022/09/09 11:31:34;;;;;;;8.77;2.75;;;;;;;16.82;99.66;100652.50;4951134;29;20479;-69
2022/09/09 11:34:09;;;;;;;7.03;3.13;;;;;;;16.86;100.00;100658.22;4951216;29;20607;-68
2022/09/09 11:37:06;;;;;;;4.43;2.33;;;;;;;16.93;99.77;100648.09;4920729;28;20443;-70
2022/09/09 11:39:31;;;;;;;4.50;2.25;;;;;;;16.87;98.33;100646.38;4936519;28;20031;-70
2022/09/09 11:42:26;;;;;;;5.00;2.10;;;;;;;16.88;98.54;100645.31;4936437;28;20034;-67
2022/09/09 11:44:54;;;;;;;7.80;2.08;;;;;;;16.88;99.14;100648.03;4922850;28;20655;-69